createdAt,value
2016-04-04T00:00:49.609Z,954.04
2016-04-04T00:01:49.612Z,954.04
2016-04-04T00:02:49.614Z,954.04
2016-04-04T00:03:49.633Z,954.04
2016-04-04T00:04:49.635Z,954.01
2016-04-04T00:05:49.654Z,954.02
2016-04-04T00:06:49.656Z,954.02
2016-04-04T00:07:49.659Z,954.05
2016-04-04T00:08:49.678Z,954.04
2016-04-04T00:09:49.680Z,954
2016-04-04T00:10:49.683Z,954.04
2016-04-04T00:11:49.686Z,954.04
2016-04-04T00:12:49.689Z,954.01
2016-04-04T00:13:49.706Z,954.06
2016-04-04T00:14:49.709Z,954.02
2016-04-04T00:15:49.712Z,953.99
2016-04-04T00:16:49.731Z,954.02
2016-04-04T00:17:49.733Z,954.02
2016-04-04T00:18:49.735Z,953.98
2016-04-04T00:19:49.754Z,954
2016-04-04T00:20:49.757Z,954
2016-04-04T00:21:49.760Z,954.01
2016-04-04T00:22:49.763Z,954
2016-04-04T00:23:49.780Z,954
2016-04-04T00:24:49.783Z,953.98
2016-04-04T00:25:49.785Z,953.97
2016-04-04T00:26:49.788Z,953.93
2016-04-04T00:27:49.807Z,953.9
2016-04-04T00:28:49.810Z,953.84
2016-04-04T00:29:49.827Z,953.81
2016-04-04T00:30:49.830Z,953.82
2016-04-04T00:31:49.832Z,953.83
2016-04-04T00:32:49.835Z,953.81
2016-04-04T00:33:49.870Z,953.83
2016-04-04T00:34:49.857Z,953.86
2016-04-04T00:35:49.859Z,953.84
2016-04-04T00:36:49.862Z,953.81
2016-04-04T00:37:49.880Z,953.79
2016-04-04T00:38:49.883Z,953.81
2016-04-04T00:39:49.887Z,953.79
2016-04-04T00:40:49.903Z,953.8
2016-04-04T00:41:49.907Z,953.75
2016-04-04T00:42:49.909Z,953.73
2016-04-04T00:43:49.911Z,953.7
2016-04-04T00:44:49.930Z,953.72
2016-04-04T00:45:49.934Z,953.72
2016-04-04T00:46:49.952Z,953.75
2016-04-04T00:47:49.939Z,953.75
2016-04-04T00:48:49.957Z,953.77
2016-04-04T00:49:49.960Z,953.74
2016-04-04T00:50:49.977Z,953.75
2016-04-04T00:51:49.980Z,953.79
2016-04-04T00:52:49.983Z,953.78
2016-04-04T00:53:49.986Z,953.8
2016-04-04T00:54:50.004Z,953.82
2016-04-04T00:55:50.007Z,953.77
2016-04-04T00:56:50.010Z,953.75
2016-04-04T00:57:50.044Z,953.73
2016-04-04T00:58:50.030Z,953.74
2016-04-04T00:59:50.049Z,953.74
2016-04-04T01:00:50.035Z,953.75
2016-04-04T01:01:50.038Z,953.78
2016-04-04T01:02:50.057Z,953.74
2016-04-04T01:03:50.060Z,953.7
2016-04-04T01:04:50.063Z,953.68
2016-04-04T01:05:50.081Z,953.68
2016-04-04T01:06:50.084Z,953.75
2016-04-04T01:07:50.087Z,953.73
2016-04-04T01:08:50.090Z,953.74
2016-04-04T01:09:50.107Z,953.69
2016-04-04T01:10:50.110Z,953.71
2016-04-04T01:11:50.113Z,953.72
2016-04-04T01:12:50.131Z,953.71
2016-04-04T01:13:50.134Z,953.68
2016-04-04T01:14:50.136Z,953.65
2016-04-04T01:15:50.139Z,953.63
2016-04-04T01:16:50.158Z,953.64
2016-04-04T01:17:50.160Z,953.66
2016-04-04T01:18:50.163Z,953.68
2016-04-04T01:19:50.181Z,953.7
2016-04-04T01:20:50.183Z,953.66
2016-04-04T01:21:50.186Z,953.72
2016-04-04T01:22:50.189Z,953.73
2016-04-04T01:23:50.208Z,953.73
2016-04-04T01:24:50.211Z,953.71
2016-04-04T01:25:50.228Z,953.68
2016-04-04T01:26:50.216Z,953.71
2016-04-04T01:27:50.233Z,953.71
2016-04-04T01:28:50.236Z,953.68
2016-04-04T01:29:50.238Z,953.7
2016-04-04T01:30:50.241Z,953.65
2016-04-04T01:31:50.260Z,953.68
2016-04-04T01:32:50.263Z,953.66
2016-04-04T01:33:50.266Z,953.64
2016-04-04T01:34:50.284Z,953.66
2016-04-04T01:35:50.287Z,953.66
2016-04-04T01:36:50.290Z,953.67
2016-04-04T01:37:50.293Z,953.61
2016-04-04T01:38:50.310Z,953.6
2016-04-04T01:39:50.313Z,953.58
2016-04-04T01:40:50.332Z,953.59
2016-04-04T01:41:50.334Z,953.57
2016-04-04T01:42:50.337Z,953.57
2016-04-04T01:43:50.339Z,953.57
2016-04-04T01:44:50.342Z,953.57
2016-04-04T01:45:50.361Z,953.55
2016-04-04T01:46:50.363Z,953.58
2016-04-04T01:47:50.366Z,953.59
2016-04-04T01:48:50.383Z,953.61
2016-04-04T01:49:50.386Z,953.56
2016-04-04T01:50:50.389Z,953.57
2016-04-04T01:51:50.407Z,953.55
2016-04-04T01:52:50.410Z,953.57
2016-04-04T01:53:50.428Z,953.55
2016-04-04T01:54:50.415Z,953.53
2016-04-04T01:55:50.418Z,953.52
2016-04-04T01:56:50.436Z,953.54
2016-04-04T01:57:50.439Z,953.56
2016-04-04T01:58:50.441Z,953.56
2016-04-04T01:59:50.460Z,953.54
2016-04-04T02:00:50.468Z,953.55
2016-04-04T02:01:50.471Z,953.58
2016-04-04T02:02:50.474Z,953.59
2016-04-04T02:03:50.476Z,953.6
2016-04-04T02:04:50.495Z,953.56
2016-04-04T02:05:50.497Z,953.56
2016-04-04T02:06:50.500Z,953.51
2016-04-04T02:07:50.518Z,953.49
2016-04-04T02:08:50.520Z,953.47
2016-04-04T02:09:50.523Z,953.5
2016-04-04T02:10:50.526Z,953.47
2016-04-04T02:11:50.545Z,953.45
2016-04-04T02:12:50.547Z,953.41
2016-04-04T02:13:50.550Z,953.43
2016-04-04T02:14:50.568Z,953.43
2016-04-04T02:15:50.587Z,953.44
2016-04-04T02:16:50.573Z,953.45
2016-04-04T02:17:50.576Z,953.43
2016-04-04T02:18:50.578Z,953.42
2016-04-04T02:19:50.597Z,953.4
2016-04-04T02:20:50.600Z,953.4
2016-04-04T02:21:50.619Z,953.44
2016-04-04T02:22:50.622Z,953.4
2016-04-04T02:23:50.624Z,953.4
2016-04-04T02:24:50.627Z,953.4
2016-04-04T02:25:50.644Z,953.43
2016-04-04T02:26:50.647Z,953.39
2016-04-04T02:27:50.650Z,953.4
2016-04-04T02:28:50.653Z,953.37
2016-04-04T02:29:50.671Z,953.36
2016-04-04T02:30:50.674Z,953.34
2016-04-04T02:31:50.677Z,953.38
2016-04-04T02:32:50.679Z,953.38
2016-04-04T02:33:50.698Z,953.35
2016-04-04T02:34:50.701Z,953.33
2016-04-04T02:35:50.703Z,953.27
2016-04-04T02:36:50.706Z,953.33
2016-04-04T02:37:50.724Z,953.29
2016-04-04T02:38:50.726Z,953.28
2016-04-04T02:39:50.729Z,953.29
2016-04-04T02:40:50.748Z,953.28
2016-04-04T02:41:50.750Z,953.27
2016-04-04T02:42:50.753Z,953.25
2016-04-04T02:43:50.756Z,953.22
2016-04-04T02:44:50.759Z,953.23
2016-04-04T02:45:50.776Z,953.26
2016-04-04T02:46:50.779Z,953.26
2016-04-04T02:47:50.782Z,953.23
2016-04-04T02:48:50.800Z,953.28
2016-04-04T02:49:50.819Z,953.28
2016-04-04T02:50:50.805Z,953.28
2016-04-04T02:51:50.824Z,953.25
2016-04-04T02:52:50.827Z,953.24
2016-04-04T02:53:50.829Z,953.25
2016-04-04T02:54:50.832Z,953.22
2016-04-04T02:55:50.850Z,953.26
2016-04-04T02:56:50.852Z,953.25
2016-04-04T02:57:50.856Z,953.24
2016-04-04T02:58:50.858Z,953.27
2016-04-04T02:59:50.877Z,953.24
2016-04-04T03:00:50.879Z,953.24
2016-04-04T03:01:50.899Z,953.23
2016-04-04T03:02:50.885Z,953.32
2016-04-04T03:03:50.903Z,953.27
2016-04-04T03:04:50.907Z,953.27
2016-04-04T03:05:50.909Z,953.24
2016-04-04T03:06:50.912Z,953.24
2016-04-04T03:07:50.969Z,953.23
2016-04-04T03:08:50.925Z,953.26
2016-04-04T03:09:50.944Z,953.21
2016-04-04T03:10:50.946Z,953.21
2016-04-04T03:11:50.949Z,953.19
2016-04-04T03:12:50.952Z,953.16
2016-04-04T03:13:50.970Z,953.17
2016-04-04T03:14:50.973Z,953.21
2016-04-04T03:15:50.976Z,953.14
2016-04-04T03:16:50.978Z,953.16
2016-04-04T03:17:50.996Z,953.17
2016-04-04T03:18:50.999Z,953.16
2016-04-04T03:19:51.080Z,953.21
2016-04-04T03:20:51.020Z,953.14
2016-04-04T03:21:51.023Z,953.11
2016-04-04T03:22:51.026Z,953.14
2016-04-04T03:23:51.044Z,953.16
2016-04-04T03:24:51.047Z,953.2
2016-04-04T03:25:51.050Z,953.18
2016-04-04T03:26:51.052Z,953.16
2016-04-04T03:27:51.070Z,953.22
2016-04-04T03:28:51.073Z,953.2
2016-04-04T03:29:51.075Z,953.23
2016-04-04T03:30:51.078Z,953.19
2016-04-04T03:31:51.081Z,953.16
2016-04-04T03:32:51.099Z,953.19
2016-04-04T03:33:51.102Z,953.23
2016-04-04T03:34:51.105Z,953.22
2016-04-04T03:35:51.123Z,953.21
2016-04-04T03:36:51.125Z,953.24
2016-04-04T03:37:51.128Z,953.21
2016-04-04T03:38:51.131Z,953.19
2016-04-04T03:39:51.150Z,953.18
2016-04-04T03:40:51.152Z,953.19
2016-04-04T03:41:51.154Z,953.16
2016-04-04T03:42:51.174Z,953.16
2016-04-04T03:43:51.176Z,953.14
2016-04-04T03:44:51.178Z,953.18
2016-04-04T03:45:51.182Z,953.19
2016-04-04T03:46:51.200Z,953.19
2016-04-04T03:47:51.202Z,953.2
2016-04-04T03:48:51.204Z,953.2
2016-04-04T03:49:51.208Z,953.19
2016-04-04T03:50:51.226Z,953.23
2016-04-04T03:51:51.228Z,953.22
2016-04-04T03:52:51.247Z,953.17
2016-04-04T03:53:51.250Z,953.17
2016-04-04T03:54:51.253Z,953.16
2016-04-04T03:55:51.255Z,953.15
2016-04-04T03:56:51.258Z,953.18
2016-04-04T03:57:51.276Z,953.13
2016-04-04T03:58:51.279Z,953.18
2016-04-04T03:59:51.281Z,953.2
2016-04-04T04:00:51.284Z,953.22
2016-04-04T04:01:51.303Z,953.19
2016-04-04T04:02:51.305Z,953.2
2016-04-04T04:03:51.308Z,953.15
2016-04-04T04:04:51.326Z,953.15
2016-04-04T04:05:51.329Z,953.19
2016-04-04T04:06:51.332Z,953.19
2016-04-04T04:07:51.335Z,953.21
2016-04-04T04:08:51.353Z,953.23
2016-04-04T04:09:51.356Z,953.27
2016-04-04T04:10:51.359Z,953.3
2016-04-04T04:11:51.361Z,953.32
2016-04-04T04:12:51.380Z,953.3
2016-04-04T04:13:51.383Z,953.3
2016-04-04T04:14:51.386Z,953.31
2016-04-04T04:15:51.388Z,953.35
2016-04-04T04:16:51.406Z,953.34
2016-04-04T04:17:51.409Z,953.35
2016-04-04T04:18:51.411Z,953.36
2016-04-04T04:19:51.414Z,953.31
2016-04-04T04:20:51.432Z,953.26
2016-04-04T04:21:51.436Z,953.29
2016-04-04T04:22:51.438Z,953.27
2016-04-04T04:23:51.456Z,953.31
2016-04-04T04:24:51.460Z,953.29
2016-04-04T04:25:51.462Z,953.27
2016-04-04T04:26:51.465Z,953.28
2016-04-04T04:27:51.467Z,953.3
2016-04-04T04:28:51.486Z,953.29
2016-04-04T04:29:51.488Z,953.31
2016-04-04T04:30:51.490Z,953.28
2016-04-04T04:31:51.509Z,953.27
2016-04-04T04:32:51.511Z,953.3
2016-04-04T04:33:51.515Z,953.28
2016-04-04T04:34:51.517Z,953.27
2016-04-04T04:35:51.535Z,953.26
2016-04-04T04:36:51.538Z,953.25
2016-04-04T04:37:51.540Z,953.27
2016-04-04T04:38:51.559Z,953.25
2016-04-04T04:39:51.561Z,953.26
2016-04-04T04:40:51.565Z,953.27
2016-04-04T04:41:51.567Z,953.31
2016-04-04T04:42:51.570Z,953.32
2016-04-04T04:43:51.588Z,953.33
2016-04-04T04:44:51.591Z,953.33
2016-04-04T04:45:51.594Z,953.36
2016-04-04T04:46:51.596Z,953.37
2016-04-04T04:47:51.614Z,953.36
2016-04-04T04:48:51.617Z,953.37
2016-04-04T04:49:51.620Z,953.4
2016-04-04T04:50:51.622Z,953.43
2016-04-04T04:51:51.641Z,953.4
2016-04-04T04:52:51.644Z,953.46
2016-04-04T04:53:51.646Z,953.54
2016-04-04T04:54:51.665Z,953.52
2016-04-04T04:55:51.667Z,953.54
2016-04-04T04:56:51.670Z,953.55
2016-04-04T04:57:51.688Z,953.51
2016-04-04T04:58:51.691Z,953.55
2016-04-04T04:59:51.693Z,953.52
2016-04-04T05:00:51.696Z,953.53
2016-04-04T05:01:51.715Z,953.51
2016-04-04T05:02:51.717Z,953.57
2016-04-04T05:03:51.721Z,953.6
2016-04-04T05:04:51.723Z,953.56
2016-04-04T05:05:51.726Z,953.6
2016-04-04T05:06:51.743Z,953.57
2016-04-04T05:07:51.746Z,953.58
2016-04-04T05:08:51.749Z,953.61
2016-04-04T05:09:51.751Z,953.58
2016-04-04T05:10:51.770Z,953.6
2016-04-04T05:11:51.772Z,953.59
2016-04-04T05:12:51.776Z,953.62
2016-04-04T05:13:51.794Z,953.6
2016-04-04T05:14:51.796Z,953.62
2016-04-04T05:15:51.800Z,953.59
2016-04-04T05:16:51.803Z,953.6
2016-04-04T05:17:51.820Z,953.59
2016-04-04T05:18:51.822Z,953.63
2016-04-04T05:19:51.826Z,953.6
2016-04-04T05:20:51.828Z,953.61
2016-04-04T05:21:51.846Z,953.65
2016-04-04T05:22:51.849Z,953.67
2016-04-04T05:23:51.902Z,953.69
2016-04-04T05:24:51.871Z,953.68
2016-04-04T05:25:51.873Z,953.67
2016-04-04T05:26:51.880Z,953.67
2016-04-04T05:27:51.910Z,953.7
2016-04-04T05:28:51.881Z,953.73
2016-04-04T05:29:51.899Z,953.71
2016-04-04T05:30:51.902Z,953.76
2016-04-04T05:31:51.905Z,953.78
2016-04-04T05:32:51.923Z,953.79
2016-04-04T05:33:51.926Z,953.77
2016-04-04T05:34:52.131Z,953.73
2016-04-04T05:35:51.946Z,953.75
2016-04-04T05:36:51.949Z,953.79
2016-04-04T05:37:51.952Z,953.76
2016-04-04T05:38:51.955Z,953.79
2016-04-04T05:39:51.973Z,953.81
2016-04-04T05:40:51.976Z,953.81
2016-04-04T05:41:51.978Z,953.81
2016-04-04T05:42:51.981Z,953.78
2016-04-04T05:43:51.984Z,953.8
2016-04-04T05:44:52.017Z,953.86
2016-04-04T05:45:52.006Z,953.8
2016-04-04T05:46:52.023Z,953.8
2016-04-04T05:47:52.026Z,953.83
2016-04-04T05:48:52.029Z,953.84
2016-04-04T05:49:52.031Z,953.81
2016-04-04T05:50:52.034Z,953.81
2016-04-04T05:51:52.052Z,953.81
2016-04-04T05:52:52.055Z,953.77
2016-04-04T05:53:52.057Z,953.79
2016-04-04T05:54:52.061Z,953.79
2016-04-04T05:55:52.079Z,953.82
2016-04-04T05:56:52.081Z,953.79
2016-04-04T05:57:52.085Z,953.82
2016-04-04T05:58:52.088Z,953.82
2016-04-04T05:59:52.090Z,953.82
2016-04-04T06:00:52.107Z,953.77
2016-04-04T06:01:52.110Z,953.81
2016-04-04T06:02:52.129Z,953.77
2016-04-04T06:03:52.131Z,953.78
2016-04-04T06:04:52.134Z,953.78
2016-04-04T06:05:52.137Z,953.75
2016-04-04T06:06:52.140Z,953.73
2016-04-04T06:07:52.173Z,953.78
2016-04-04T06:08:52.160Z,953.77
2016-04-04T06:09:52.163Z,953.77
2016-04-04T06:10:52.181Z,953.77
2016-04-04T06:11:52.184Z,953.79
2016-04-04T06:12:52.187Z,953.85
2016-04-04T06:13:52.189Z,953.82
2016-04-04T06:14:52.208Z,953.8
2016-04-04T06:15:52.211Z,953.83
2016-04-04T06:16:52.213Z,953.99
2016-04-04T06:17:52.216Z,953.97
2016-04-04T06:18:52.234Z,953.94
2016-04-04T06:19:52.237Z,953.91
2016-04-04T06:20:52.239Z,953.85
2016-04-04T06:21:52.242Z,953.84
2016-04-04T06:22:52.261Z,953.87
2016-04-04T06:23:52.263Z,953.89
2016-04-04T06:24:52.266Z,953.9
2016-04-04T06:25:52.268Z,953.92
2016-04-04T06:26:52.287Z,953.9
2016-04-04T06:27:52.290Z,953.96
2016-04-04T06:28:52.292Z,953.95
2016-04-04T06:29:52.296Z,953.97
2016-04-04T06:30:52.313Z,953.97
2016-04-04T06:31:52.316Z,953.96
2016-04-04T06:32:52.318Z,953.99
2016-04-04T06:33:52.322Z,953.96
2016-04-04T06:34:52.355Z,953.99
2016-04-04T06:35:52.342Z,953.99
2016-04-04T06:36:52.346Z,953.97
2016-04-04T06:37:52.348Z,953.98
2016-04-04T06:38:52.366Z,953.94
2016-04-04T06:39:52.368Z,953.99
2016-04-04T06:40:52.371Z,953.96
2016-04-04T06:41:52.374Z,953.97
2016-04-04T06:42:52.376Z,953.96
2016-04-04T06:43:52.395Z,953.99
2016-04-04T06:44:52.398Z,953.99
2016-04-04T06:45:52.401Z,953.99
2016-04-04T06:46:52.419Z,953.97
2016-04-04T06:47:52.422Z,954.02
2016-04-04T06:48:52.425Z,954.02
2016-04-04T06:49:52.458Z,954.02
2016-04-04T06:50:52.445Z,954.01
2016-04-04T06:51:52.447Z,954.03
2016-04-04T06:52:52.450Z,954.02
2016-04-04T06:53:52.453Z,954
2016-04-04T06:54:52.472Z,954.02
2016-04-04T06:55:52.474Z,954.04
2016-04-04T06:56:52.477Z,954.01
2016-04-04T06:57:52.496Z,954.02
2016-04-04T06:58:52.498Z,954.01
2016-04-04T06:59:52.501Z,954.03
2016-04-04T07:00:52.508Z,954.01
2016-04-04T07:01:52.511Z,954.02
2016-04-04T07:02:52.513Z,954.07
2016-04-04T07:03:52.532Z,954.07
2016-04-04T07:04:52.534Z,954.06
2016-04-04T07:05:52.538Z,954.06
2016-04-04T07:06:52.556Z,954.07
2016-04-04T07:07:52.559Z,954.11
2016-04-04T07:08:52.561Z,954.1
2016-04-04T07:09:52.595Z,954.11
2016-04-04T07:10:52.581Z,954.1
2016-04-04T07:11:52.584Z,954.11
2016-04-04T07:12:52.587Z,954.09
2016-04-04T07:13:52.589Z,954.08
2016-04-04T07:14:52.609Z,954.07
2016-04-04T07:15:52.611Z,954.11
2016-04-04T07:16:52.613Z,954.11
2016-04-04T07:17:52.616Z,954.19
2016-04-04T07:18:52.635Z,954.17
2016-04-04T07:19:52.669Z,954.2
2016-04-04T07:20:52.640Z,954.18
2016-04-04T07:21:52.659Z,954.16
2016-04-04T07:22:52.677Z,954.17
2016-04-04T07:23:52.664Z,954.19
2016-04-04T07:24:52.666Z,954.19
2016-04-04T07:25:52.685Z,954.19
2016-04-04T07:26:52.688Z,954.22
2016-04-04T07:27:52.691Z,954.17
2016-04-04T07:28:52.693Z,954.19
2016-04-04T07:29:52.695Z,954.24
2016-04-04T07:30:52.699Z,954.24
2016-04-04T07:31:52.717Z,954.22
2016-04-04T07:32:52.719Z,954.25
2016-04-04T07:33:52.737Z,954.3
2016-04-04T07:34:52.741Z,954.34
2016-04-04T07:35:52.726Z,954.38
2016-04-04T07:36:52.746Z,954.36
2016-04-04T07:37:52.748Z,954.37
2016-04-04T07:38:52.751Z,954.4
2016-04-04T07:39:52.754Z,954.43
2016-04-04T07:40:52.773Z,954.43
2016-04-04T07:41:52.775Z,954.43
2016-04-04T07:42:52.777Z,954.45
2016-04-04T07:43:52.796Z,954.52
2016-04-04T07:44:52.815Z,954.53
2016-04-04T07:45:52.801Z,954.51
2016-04-04T07:46:52.803Z,954.51
2016-04-04T07:47:52.822Z,954.57
2016-04-04T07:48:52.841Z,954.55
2016-04-04T07:49:52.828Z,954.56
2016-04-04T07:50:52.830Z,954.61
2016-04-04T07:51:52.849Z,954.6
2016-04-04T07:52:52.851Z,954.64
2016-04-04T07:53:52.855Z,954.64
2016-04-04T07:54:52.872Z,954.69
2016-04-04T07:55:52.874Z,954.61
2016-04-04T07:56:52.878Z,954.65
2016-04-04T07:57:52.880Z,954.63
2016-04-04T07:58:52.899Z,954.62
2016-04-04T07:59:52.901Z,954.62
2016-04-04T08:00:52.904Z,954.61
2016-04-04T08:01:52.921Z,954.62
2016-04-04T08:02:52.925Z,954.6
2016-04-04T08:03:52.927Z,954.58
2016-04-04T08:04:52.930Z,954.57
2016-04-04T08:05:52.933Z,954.58
2016-04-04T08:06:52.952Z,954.58
2016-04-04T08:07:52.954Z,954.59
2016-04-04T08:08:52.972Z,954.56
2016-04-04T08:09:52.975Z,954.6
2016-04-04T08:10:52.978Z,954.58
2016-04-04T08:11:52.996Z,954.62
2016-04-04T08:12:52.998Z,954.63
2016-04-04T08:13:53.001Z,954.64
2016-04-04T08:14:53.003Z,954.62
2016-04-04T08:15:53.006Z,954.6
2016-04-04T08:16:53.025Z,954.65
2016-04-04T08:17:53.028Z,954.63
2016-04-04T08:18:53.047Z,954.63
2016-04-04T08:19:53.049Z,954.65
2016-04-04T08:20:53.052Z,954.68
2016-04-04T08:21:53.055Z,954.74
2016-04-04T08:22:53.072Z,954.72
2016-04-04T08:23:53.075Z,954.76
2016-04-04T08:24:53.094Z,954.77
2016-04-04T08:25:53.097Z,954.72
2016-04-04T08:26:53.099Z,954.74
2016-04-04T08:27:53.102Z,954.73
2016-04-04T08:28:53.104Z,954.7
2016-04-04T08:29:53.123Z,954.73
2016-04-04T08:30:53.125Z,954.71
2016-04-04T08:31:53.144Z,954.73
2016-04-04T08:32:53.146Z,954.75
2016-04-04T08:33:53.155Z,954.74
2016-04-04T08:34:53.130Z,954.75
2016-04-04T08:35:53.137Z,954.73
2016-04-04T08:36:53.128Z,954.77
2016-04-04T08:37:53.118Z,954.76
2016-04-04T08:38:53.131Z,954.76
2016-04-04T08:39:53.129Z,954.74
2016-04-04T08:40:53.127Z,954.76
2016-04-04T08:41:53.142Z,954.8
2016-04-04T08:42:53.140Z,954.75
2016-04-04T08:43:53.141Z,954.78
2016-04-04T08:44:53.158Z,954.79
2016-04-04T08:45:53.160Z,954.76
2016-04-04T08:46:53.161Z,954.76
2016-04-04T08:47:53.161Z,954.76
2016-04-04T08:48:53.179Z,954.78
2016-04-04T08:49:53.180Z,954.8
2016-04-04T08:50:53.182Z,954.8
2016-04-04T08:51:53.200Z,954.8
2016-04-04T08:52:53.202Z,954.79
2016-04-04T08:53:53.204Z,954.79
2016-04-04T08:54:53.222Z,954.78
2016-04-04T08:55:53.224Z,954.81
2016-04-04T08:56:53.226Z,954.78
2016-04-04T08:57:53.244Z,954.75
2016-04-04T08:58:53.247Z,954.78
2016-04-04T08:59:53.250Z,954.75
2016-04-04T09:00:53.269Z,954.77
2016-04-04T09:01:53.271Z,954.79
2016-04-04T09:02:53.273Z,954.79
2016-04-04T09:03:53.277Z,954.8
2016-04-04T09:04:53.294Z,954.78
2016-04-04T09:05:53.297Z,954.86
2016-04-04T09:06:53.315Z,954.79
2016-04-04T09:07:53.318Z,954.79
2016-04-04T09:08:53.321Z,954.79
2016-04-04T09:09:53.340Z,954.79
2016-04-04T09:10:53.342Z,954.81
2016-04-04T09:11:53.345Z,954.78
2016-04-04T09:12:53.347Z,954.79
2016-04-04T09:13:53.365Z,954.76
2016-04-04T09:14:53.368Z,954.79
2016-04-04T09:15:53.371Z,954.81
2016-04-04T09:16:53.389Z,954.79
2016-04-04T09:17:53.392Z,954.78
2016-04-04T09:18:53.395Z,954.81
2016-04-04T09:19:53.428Z,954.82
2016-04-04T09:20:53.415Z,954.81
2016-04-04T09:21:53.418Z,954.76
2016-04-04T09:22:53.436Z,954.82
2016-04-04T09:23:53.439Z,954.84
2016-04-04T09:24:53.442Z,954.85
2016-04-04T09:25:53.445Z,954.82
2016-04-04T09:26:53.463Z,954.85
2016-04-04T09:27:53.466Z,954.85
2016-04-04T09:28:53.484Z,954.88
2016-04-04T09:29:53.486Z,954.91
2016-04-04T09:30:53.505Z,954.89
2016-04-04T09:31:53.508Z,954.91
2016-04-04T09:32:53.510Z,954.9
2016-04-04T09:33:53.513Z,954.86
2016-04-04T09:34:53.532Z,954.88
2016-04-04T09:35:53.534Z,954.89
2016-04-04T09:36:53.537Z,954.9
2016-04-04T09:37:53.555Z,954.94
2016-04-04T09:38:53.558Z,954.91
2016-04-04T09:39:53.576Z,954.93
2016-04-04T09:40:53.579Z,954.92
2016-04-04T09:41:53.596Z,954.94
2016-04-04T09:42:53.599Z,954.93
2016-04-04T09:43:53.602Z,954.91
2016-04-04T09:44:53.621Z,954.9
2016-04-04T09:45:53.624Z,954.88
2016-04-04T09:46:53.626Z,954.91
2016-04-04T09:47:53.628Z,954.9
2016-04-04T09:48:53.648Z,954.87
2016-04-04T09:49:53.666Z,954.84
2016-04-04T09:50:53.653Z,954.84
2016-04-04T09:51:53.670Z,954.86
2016-04-04T09:52:53.673Z,954.83
2016-04-04T09:53:53.691Z,954.82
2016-04-04T09:54:53.694Z,954.78
2016-04-04T09:55:53.698Z,954.76
2016-04-04T09:56:53.731Z,954.77
2016-04-04T09:57:53.719Z,954.73
2016-04-04T09:58:53.721Z,954.77
2016-04-04T09:59:53.739Z,954.74
2016-04-04T10:00:53.742Z,954.73
2016-04-04T10:01:53.761Z,954.77
2016-04-04T10:02:53.764Z,954.81
2016-04-04T10:03:53.766Z,954.79
2016-04-04T10:04:53.783Z,954.79
2016-04-04T10:05:53.786Z,954.74
2016-04-04T10:06:53.789Z,954.77
2016-04-04T10:07:53.808Z,954.78
2016-04-04T10:08:53.810Z,954.8
2016-04-04T10:09:53.818Z,954.82
2016-04-04T10:10:53.836Z,954.76
2016-04-04T10:11:53.840Z,954.76
2016-04-04T10:12:53.842Z,954.82
2016-04-04T10:13:53.860Z,954.75
2016-04-04T10:14:53.862Z,954.8
2016-04-04T10:15:53.881Z,954.78
2016-04-04T10:16:53.884Z,954.79
2016-04-04T10:17:53.887Z,954.78
2016-04-04T10:18:53.904Z,954.78
2016-04-04T10:19:53.907Z,954.79
2016-04-04T10:20:53.925Z,954.76
2016-04-04T10:21:53.928Z,954.8
2016-04-04T10:22:53.931Z,954.78
2016-04-04T10:23:53.934Z,954.79
2016-04-04T10:24:53.952Z,954.72
2016-04-04T10:25:53.955Z,954.74
2016-04-04T10:26:53.973Z,954.71
2016-04-04T10:27:53.976Z,954.7
2016-04-04T10:28:53.978Z,954.75
2016-04-04T10:29:53.981Z,954.74
2016-04-04T10:30:53.999Z,954.72
2016-04-04T10:31:54.002Z,954.68
2016-04-04T10:32:54.020Z,954.68
2016-04-04T10:33:54.024Z,954.64
2016-04-04T10:34:54.027Z,954.66
2016-04-04T10:35:54.044Z,954.64
2016-04-04T10:36:54.046Z,954.64
2016-04-04T10:37:54.049Z,954.59
2016-04-04T10:38:54.051Z,954.6
2016-04-04T10:39:54.070Z,954.57
2016-04-04T10:40:54.074Z,954.58
2016-04-04T10:41:54.091Z,954.51
2016-04-04T10:42:54.094Z,954.47
2016-04-04T10:43:54.096Z,954.45
2016-04-04T10:44:54.115Z,954.45
2016-04-04T10:45:54.118Z,954.47
2016-04-04T10:46:54.121Z,954.46
2016-04-04T10:47:54.123Z,954.41
2016-04-04T10:48:54.142Z,954.48
2016-04-04T10:49:54.144Z,954.41
2016-04-04T10:50:54.162Z,954.4
2016-04-04T10:51:54.165Z,954.42
2016-04-04T10:52:54.168Z,954.39
2016-04-04T10:53:54.186Z,954.36
2016-04-04T10:54:54.189Z,954.33
2016-04-04T10:55:54.191Z,954.34
2016-04-04T10:56:54.194Z,954.32
2016-04-04T10:57:54.213Z,954.33
2016-04-04T10:58:54.216Z,954.31
2016-04-04T10:59:54.233Z,954.3
2016-04-04T11:00:54.236Z,954.27
2016-04-04T11:01:54.239Z,954.26
2016-04-04T11:02:54.242Z,954.3
2016-04-04T11:03:54.260Z,954.22
2016-04-04T11:04:54.263Z,954.25
2016-04-04T11:05:54.296Z,954.27
2016-04-04T11:06:54.284Z,954.24
2016-04-04T11:07:54.286Z,954.23
2016-04-04T11:08:54.299Z,954.21
2016-04-04T11:09:54.301Z,954.23
2016-04-04T11:10:54.320Z,954.25
2016-04-04T11:11:54.322Z,954.22
2016-04-04T11:12:54.325Z,954.24
2016-04-04T11:13:54.328Z,954.22
2016-04-04T11:14:54.346Z,954.2
2016-04-04T11:15:54.348Z,954.16
2016-04-04T11:16:54.351Z,954.16
2016-04-04T11:17:54.370Z,954.17
2016-04-04T11:18:54.373Z,954.12
2016-04-04T11:19:54.391Z,954.12
2016-04-04T11:20:54.394Z,954.16
2016-04-04T11:21:54.397Z,954.13
2016-04-04T11:22:54.415Z,954.14
2016-04-04T11:23:54.417Z,954.15
2016-04-04T11:24:54.420Z,954.12
2016-04-04T11:25:54.423Z,954.08
2016-04-04T11:26:54.441Z,954.09
2016-04-04T11:27:54.444Z,954.08
2016-04-04T11:28:54.447Z,954.08
2016-04-04T11:29:54.465Z,954.09
2016-04-04T11:30:54.468Z,954.09
2016-04-04T11:31:54.485Z,954.06
2016-04-04T11:32:54.504Z,954.11
2016-04-04T11:33:54.693Z,954.08
2016-04-04T11:34:54.509Z,954.11
2016-04-04T11:35:54.512Z,954.12
2016-04-04T11:36:54.514Z,954.12
2016-04-04T11:37:54.532Z,954.05
2016-04-04T11:38:54.541Z,954.08
2016-04-04T11:39:54.543Z,954.07
2016-04-04T11:40:54.546Z,954.02
2016-04-04T11:41:54.564Z,954.05
2016-04-04T11:42:54.567Z,954
2016-04-04T11:43:54.570Z,954.01
2016-04-04T11:44:54.588Z,953.97
2016-04-04T11:45:54.606Z,954
2016-04-04T11:46:54.608Z,954.01
2016-04-04T11:47:54.611Z,953.93
2016-04-04T11:48:54.614Z,953.99
2016-04-04T11:49:54.647Z,953.94
2016-04-04T11:50:54.635Z,953.96
2016-04-04T11:51:54.638Z,953.96
2016-04-04T11:52:54.656Z,953.9
2016-04-04T11:53:54.658Z,953.91
2016-04-04T11:54:54.662Z,953.86
2016-04-04T11:55:54.680Z,953.84
2016-04-04T11:56:54.683Z,953.86
2016-04-04T11:57:54.702Z,953.82
2016-04-04T11:58:54.704Z,953.81
2016-04-04T11:59:54.707Z,953.78
2016-04-04T12:00:54.724Z,953.74
2016-04-04T12:01:54.727Z,953.7
2016-04-04T12:02:54.730Z,953.67
2016-04-04T12:03:54.748Z,953.67
2016-04-04T12:04:54.751Z,953.62
2016-04-04T12:05:54.753Z,953.6
2016-04-04T12:06:54.772Z,953.61
2016-04-04T12:07:54.775Z,953.58
2016-04-04T12:08:54.777Z,953.53
2016-04-04T12:09:54.796Z,953.52
2016-04-04T12:10:54.798Z,953.56
2016-04-04T12:11:54.817Z,953.58
2016-04-04T12:12:54.820Z,953.62
2016-04-04T12:13:54.838Z,953.59
2016-04-04T12:14:54.825Z,953.58
2016-04-04T12:15:54.843Z,953.62
2016-04-04T12:16:54.845Z,953.6
2016-04-04T12:17:54.864Z,953.6
2016-04-04T12:18:54.883Z,953.6
2016-04-04T12:19:54.869Z,953.63
2016-04-04T12:20:54.889Z,953.64
2016-04-04T12:21:54.891Z,953.66
2016-04-04T12:22:54.894Z,953.6
2016-04-04T12:23:54.912Z,953.68
2016-04-04T12:24:54.914Z,953.64
2016-04-04T12:25:54.917Z,953.6
2016-04-04T12:26:54.936Z,953.61
2016-04-04T12:27:54.954Z,953.61
2016-04-04T12:28:54.957Z,953.62
2016-04-04T12:29:54.959Z,953.65
2016-04-04T12:30:54.962Z,953.65
2016-04-04T12:31:54.965Z,953.64